Terminal Aerodrome Forecast
Issued by NWS Cleveland, OH

Home | Current Version | Previous Version | Text Only | Print | Product List | Glossary On
Versions: 1 2 3 4 5 6 7 8 9 10 11 12 13 14 15 16 17
919
FTUS41 KCLE 182342
TAFCAK
TAF
KCAK 182342Z 1900/1924 11015G22KT P6SM SCT040 OVC090
     FM190500 11015KT P6SM VCSH OVC040
     FM190800 14012KT P6SM VCSH OVC015
     FM191800 20012G20KT P6SM -SHRA VCTS BKN035CB=

USA.gov is the U.S. government's official web portal to all federal, state and local government web resources and services.